Time;durP1;ratioP1;P1;durP2;ratioP2;P2;SDS_P1;SDS_P2;PMS_P1;PMS_P2;Temp;Humidity;BMP_temperature;BMP_pressure;BME280_temperature;BME280_humidity;BME280_pressure;Samples;Min_cycle;Max_cycle;Signal;HPM_P1;HPM_P2
2021/06/16 00:00:42;;;;;;;;;;;;;;;;;;5074812;28;19951;-64
2021/06/16 00:03:09;;;;;;;;;;;;;;;;;;5074729;28;20299;-63
2021/06/16 00:05:35;;;;;;;;;;;;;;;;;;5074654;28;19925;-64
2021/06/16 00:08:02;;;;;;;;;;;;;;;;;;5087586;28;19931;-63
2021/06/16 00:10:29;;;;;;;;;;;;;;;;;;5094550;28;20306;-63
2021/06/16 00:12:56;;;;;;;;;;;;;;;;;;5095112;28;19924;-63
2021/06/16 00:15:23;;;;;;;;;;;;;;;;;;5095006;28;20350;-63
2021/06/16 00:17:50;;;;;;;;;;;;;;;;;;5094828;28;19924;-63
2021/06/16 00:20:17;;;;;;;;;;;;;;;;;;5094592;28;19950;-63
2021/06/16 00:22:44;;;;;;;;;;;;;;;;;;5094859;28;19931;-63
2021/06/16 00:25:11;;;;;;;;;;;;;;;;;;5082342;28;19924;-63
2021/06/16 00:27:38;;;;;;;;;;;;;;;;;;5074360;28;19998;-63
2021/06/16 00:30:05;;;;;;;;;;;;;;;;;;5074036;28;19925;-63
2021/06/16 00:32:32;;;;;;;;;;;;;;;;;;5074307;28;19936;-63
2021/06/16 00:34:58;;;;;;;;;;;;;;;;;;5074228;28;19935;-63
2021/06/16 00:37:25;;;;;;;;;;;;;;;;;;5074009;28;19925;-63
2021/06/16 00:39:52;;;;;;;;;;;;;;;;;;5073310;28;20398;-63
2021/06/16 00:42:19;;;;;;;;;;;;;;;;;;5073477;28;19925;-63
2021/06/16 00:44:46;;;;;;;;;;;;;;;;;;5074183;28;19928;-62
2021/06/16 00:47:15;;;;;;;;;;;;;;;;;;5074155;28;20257;-62
2021/06/16 00:49:41;;;;;;;;;;;;;;;;;;5074010;28;19986;-62
2021/06/16 00:52:08;;;;;;;;;;;;;;;;;;5073882;28;19925;-65
2021/06/16 00:54:35;;;;;;;;;;;;;;;;;;5074216;28;20312;-65
2021/06/16 00:57:02;;;;;;;;;;;;;;;;;;5074239;28;19932;-65
2021/06/16 00:59:29;;;;;;;;;;;;;;;;;;5073870;28;20207;-65
2021/06/16 01:01:56;;;;;;;;;;;;;;;;;;5073765;28;20396;-65
2021/06/16 01:04:23;;;;;;;;;;;;;;;;;;5073857;28;19931;-63
2021/06/16 01:06:50;;;;;;;;;;;;;;;;;;5073581;28;20011;-63
2021/06/16 01:09:17;;;;;;;;;;;;;;;;;;5073555;28;19940;-63
2021/06/16 01:11:44;;;;;;;;;;;;;;;;;;5073676;28;19925;-63
2021/06/16 01:14:11;;;;;;;;;;;;;;;;;;5073559;28;19925;-64
2021/06/16 01:16:38;;;;;;;;;;;;;;;;;;5073515;28;19924;-63
2021/06/16 01:19:04;;;;;;;;;;;;;;;;;;5073309;28;19931;-63
2021/06/16 01:21:31;;;;;;;;;;;;;;;;;;5073210;28;20396;-63
2021/06/16 01:23:58;;;;;;;;;;;;;;;;;;5073607;28;19931;-63
2021/06/16 01:26:25;;;;;;;;;;;;;;;;;;5073173;28;20274;-64
2021/06/16 01:28:52;;;;;;;;;;;;;;;;;;5073120;28;19939;-63
2021/06/16 01:31:19;;;;;;;;;;;;;;;;;;5073115;28;19950;-63
2021/06/16 01:33:46;;;;;;;;;;;;;;;;;;5072911;28;20442;-63
2021/06/16 01:36:13;;;;;;;;;;;;;;;;;;5073111;28;19924;-63
2021/06/16 01:38:40;;;;;;;;;;;;;;;;;;5073140;28;19925;-64
2021/06/16 01:41:07;;;;;;;;;;;;;;;;;;5072432;28;19928;-63
2021/06/16 01:43:34;;;;;;;;;;;;;;;;;;5072828;28;19931;-63
2021/06/16 01:46:01;;;;;;;;;;;;;;;;;;5072819;28;19924;-64
2021/06/16 01:48:28;;;;;;;;;;;;;;;;;;5072380;28;19924;-64
2021/06/16 01:50:55;;;;;;;;;;;;;;;;;;5072502;28;19925;-63
2021/06/16 01:53:22;;;;;;;;;;;;;;;;;;5072693;28;19929;-63
2021/06/16 01:55:49;;;;;;;;;;;;;;;;;;5072821;28;19931;-63
2021/06/16 01:58:16;;;;;;;;;;;;;;;;;;5072469;28;19924;-63
2021/06/16 02:00:42;;;;;;;;;;;;;;;;;;5072301;28;19924;-63
2021/06/16 02:03:09;;;;;;;;;;;;;;;;;;5072292;28;20320;-63
2021/06/16 02:05:36;;;;;;;;;;;;;;;;;;5072487;28;19950;-63
2021/06/16 02:08:03;;;;;;;;;;;;;;;;;;5085602;28;19932;-63
2021/06/16 02:10:30;;;;;;;;;;;;;;;;;;5092486;28;19924;-64
2021/06/16 02:12:57;;;;;;;;;;;;;;;;;;5092442;28;19928;-63
2021/06/16 02:15:24;;;;;;;;;;;;;;;;;;5092572;28;19924;-63
2021/06/16 02:17:51;;;;;;;;;;;;;;;;;;5092210;28;19928;-64
2021/06/16 02:20:18;;;;;;;;;;;;;;;;;;5092177;28;19924;-63
2021/06/16 02:22:45;;;;;;;;;;;;;;;;;;5092452;28;19924;-64
2021/06/16 02:25:12;;;;;;;;;;;;;;;;;;5080395;28;19924;-64
2021/06/16 02:27:39;;;;;;;;;;;;;;;;;;5071710;28;19925;-63
2021/06/16 02:30:06;;;;;;;;;;;;;;;;;;5071726;28;19925;-63
2021/06/16 02:32:33;;;;;;;;;;;;;;;;;;5072370;28;19924;-63
2021/06/16 02:35:00;;;;;;;;;;;;;;;;;;5072056;28;20471;-63
2021/06/16 02:37:27;;;;;;;;;;;;;;;;;;5071937;28;19928;-63
2021/06/16 02:39:54;;;;;;;;;;;;;;;;;;5071692;28;19931;-63
2021/06/16 02:42:21;;;;;;;;;;;;;;;;;;5072509;28;19951;-63
2021/06/16 02:44:48;;;;;;;;;;;;;;;;;;5071628;28;19924;-63
2021/06/16 02:47:15;;;;;;;;;;;;;;;;;;5071437;28;19924;-63
2021/06/16 02:49:41;;;;;;;;;;;;;;;;;;5071704;28;19925;-63
2021/06/16 02:52:08;;;;;;;;;;;;;;;;;;5071777;28;19924;-64
2021/06/16 02:54:35;;;;;;;;;;;;;;;;;;5072267;28;19924;-63
2021/06/16 02:57:02;;;;;;;;;;;;;;;;;;5072162;28;19925;-63
2021/06/16 02:59:29;;;;;;;;;;;;;;;;;;5073828;28;20315;-63
2021/06/16 03:01:56;;;;;;;;;;;;;;;;;;5079692;28;19925;-63
2021/06/16 03:04:23;;;;;;;;;;;;;;;;;;5074998;28;19933;-63
2021/06/16 03:06:50;;;;;;;;;;;;;;;;;;5080396;28;19990;-63
2021/06/16 03:09:17;;;;;;;;;;;;;;;;;;5081644;28;20042;-62
2021/06/16 03:11:44;;;;;;;;;;;;;;;;;;5082630;28;19925;-63
2021/06/16 03:14:11;;;;;;;;;;;;;;;;;;5073686;28;19931;-63
2021/06/16 03:16:38;;;;;;;;;;;;;;;;;;5072263;28;19925;-62
2021/06/16 03:19:05;;;;;;;;;;;;;;;;;;5104637;22;19927;-67
2021/06/16 03:21:32;;;;;;;;;;;;;;;;;;5112337;28;20022;-66
2021/06/16 03:23:59;;;;;;;;;;;;;;;;;;5112239;28;20010;-66
2021/06/16 03:26:27;;;;;;;;;;;;;;;;;;5112067;28;19930;-66
2021/06/16 03:28:54;;;;;;;;;;;;;;;;;;5112608;28;19924;-67
2021/06/16 03:31:21;;;;;;;;;;;;;;;;;;5112081;28;19923;-67
2021/06/16 03:33:48;;;;;;;;;;;;;;;;;;5111953;28;19930;-65
2021/06/16 03:36:15;;;;;;;;;;;;;;;;;;5112062;28;20341;-66
2021/06/16 03:38:42;;;;;;;;;;;;;;;;;;5112071;28;19930;-65
2021/06/16 03:41:09;;;;;;;;;;;;;;;;;;5111863;28;19924;-66
2021/06/16 03:43:36;;;;;;;;;;;;;;;;;;5112361;28;19923;-66
2021/06/16 03:46:03;;;;;;;;;;;;;;;;;;5112054;28;19924;-67
2021/06/16 03:48:30;;;;;;;;;;;;;;;;;;5112044;28;20372;-66
2021/06/16 03:50:57;;;;;;;;;;;;;;;;;;5111544;28;19931;-66
2021/06/16 03:53:24;;;;;;;;;;;;;;;;;;5111481;28;19930;-65
2021/06/16 03:55:50;;;;;;;;;;;;;;;;;;5112275;28;19924;-66
2021/06/16 03:58:17;;;;;;;;;;;;;;;;;;5111492;28;19924;-65
2021/06/16 04:00:44;;;;;;;;;;;;;;;;;;5111569;28;19934;-65
2021/06/16 04:03:11;;;;;;;;;;;;;;;;;;5111583;28;19931;-66
2021/06/16 04:05:38;;;;;;;;;;;;;;;;;;5112639;28;19986;-66
2021/06/16 04:08:05;;;;;;;;;;;;;;;;;;5125080;28;20411;-66
2021/06/16 04:10:32;;;;;;;;;;;;;;;;;;5132315;28;19923;-66
2021/06/16 04:12:59;;;;;;;;;;;;;;;;;;5132253;28;19923;-65
2021/06/16 04:15:26;;;;;;;;;;;;;;;;;;5132699;27;19930;-66
2021/06/16 04:17:54;;;;;;;;;;;;;;;;;;5135883;27;19924;-66
2021/06/16 04:20:21;;;;;;;;;;;;;;;;;;5135373;27;19933;-66
2021/06/16 04:22:48;;;;;;;;;;;;;;;;;;5135840;27;19927;-66
2021/06/16 04:25:15;;;;;;;;;;;;;;;;;;5122830;27;20015;-66
2021/06/16 04:27:42;;;;;;;;;;;;;;;;;;5115418;28;19924;-66
2021/06/16 04:30:09;;;;;;;;;;;;;;;;;;5114826;28;19923;-66
2021/06/16 04:32:36;;;;;;;;;;;;;;;;;;5115078;28;20284;-65
2021/06/16 04:35:03;;;;;;;;;;;;;;;;;;5115253;28;19924;-65
2021/06/16 04:37:29;;;;;;;;;;;;;;;;;;5115124;28;19927;-66
2021/06/16 04:39:56;;;;;;;;;;;;;;;;;;5114906;28;19924;-66
2021/06/16 04:42:26;;;;;;;;;;;;;;;;;;5115388;28;19924;-65
2021/06/16 04:44:53;;;;;;;;;;;;;;;;;;5120460;28;19924;-66
2021/06/16 04:47:20;;;;;;;;;;;;;;;;;;5117736;28;20479;-66
2021/06/16 04:49:47;;;;;;;;;;;;;;;;;;5116366;28;19928;-65
2021/06/16 04:52:14;;;;;;;;;;;;;;;;;;5115478;28;19928;-65
2021/06/16 04:54:41;;;;;;;;;;;;;;;;;;5115031;28;19930;-65
2021/06/16 04:57:08;;;;;;;;;;;;;;;;;;5115886;28;20303;-65
2021/06/16 04:59:34;;;;;;;;;;;;;;;;;;5114556;28;19959;-65
2021/06/16 05:02:01;;;;;;;;;;;;;;;;;;5114833;28;20387;-64
2021/06/16 05:04:28;;;;;;;;;;;;;;;;;;5114378;28;19924;-65
2021/06/16 05:06:55;;;;;;;;;;;;;;;;;;5114989;28;19930;-65
2021/06/16 05:09:22;;;;;;;;;;;;;;;;;;5114103;28;19983;-66
2021/06/16 05:11:49;;;;;;;;;;;;;;;;;;5114559;28;19924;-66
2021/06/16 05:14:16;;;;;;;;;;;;;;;;;;5114451;28;19927;-66
2021/06/16 05:16:43;;;;;;;;;;;;;;;;;;5113745;28;20383;-65
2021/06/16 05:19:15;;;;;;;;;;;;;;;;;;5113780;28;19977;-65
2021/06/16 05:21:42;;;;;;;;;;;;;;;;;;5114041;28;19985;-65
2021/06/16 05:24:09;;;;;;;;;;;;;;;;;;5114128;28;20023;-66
2021/06/16 05:26:36;;;;;;;;;;;;;;;;;;5113544;28;19934;-65
2021/06/16 05:29:06;;;;;;;;;;;;;;;;;;5114411;28;19923;-68
2021/06/16 05:31:33;;;;;;;;;;;;;;;;;;5114001;28;20395;-66
2021/06/16 05:34:00;;;;;;;;;;;;;;;;;;5114202;28;19946;-66
2021/06/16 05:36:27;;;;;;;;;;;;;;;;;;5113954;28;19961;-66
2021/06/16 05:38:54;;;;;;;;;;;;;;;;;;5113481;28;19936;-67
2021/06/16 05:41:21;;;;;;;;;;;;;;;;;;5113493;28;19924;-66
2021/06/16 05:43:48;;;;;;;;;;;;;;;;;;5113326;28;19923;-66
2021/06/16 05:46:14;;;;;;;;;;;;;;;;;;5114096;28;20413;-66
2021/06/16 05:48:41;;;;;;;;;;;;;;;;;;5114110;28;19924;-67
2021/06/16 05:51:08;;;;;;;;;;;;;;;;;;5114129;28;20003;-66
2021/06/16 05:53:35;;;;;;;;;;;;;;;;;;5114280;28;20162;-67
2021/06/16 05:56:02;;;;;;;;;;;;;;;;;;5113300;28;20018;-67
2021/06/16 05:58:35;;;;;;;;;;;;;;;;;;5113101;28;19924;-66
2021/06/16 06:01:02;;;;;;;;;;;;;;;;;;5113245;28;19923;-68
2021/06/16 06:03:29;;;;;;;;;;;;;;;;;;5113621;28;19955;-66
2021/06/16 06:05:56;;;;;;;;;;;;;;;;;;5113225;28;19983;-67
2021/06/16 06:08:24;;;;;;;;;;;;;;;;;;5129252;27;20356;-67
2021/06/16 06:10:51;;;;;;;;;;;;;;;;;;5133433;27;19923;-65
2021/06/16 06:13:18;;;;;;;;;;;;;;;;;;5133422;27;20031;-67
2021/06/16 06:15:45;;;;;;;;;;;;;;;;;;5133818;27;20314;-66
2021/06/16 06:18:12;;;;;;;;;;;;;;;;;;5133304;27;19923;-67
2021/06/16 06:20:39;;;;;;;;;;;;;;;;;;5133182;27;19963;-67
2021/06/16 06:23:05;;;;;;;;;;;;;;;;;;5133098;27;19924;-67
2021/06/16 06:25:32;;;;;;;;;;;;;;;;;;5117886;27;19930;-66
2021/06/16 06:27:59;;;;;;;;;;;;;;;;;;5112824;28;19931;-70
2021/06/16 06:30:26;;;;;;;;;;;;;;;;;;5112798;28;19967;-67
2021/06/16 06:32:53;;;;;;;;;;;;;;;;;;5113011;28;19928;-67
2021/06/16 06:35:20;;;;;;;;;;;;;;;;;;5112603;28;19924;-67
2021/06/16 06:37:47;;;;;;;;;;;;;;;;;;5112214;28;19924;-67
2021/06/16 06:40:17;;;;;;;;;;;;;;;;;;5111846;28;19923;-67
2021/06/16 06:42:43;;;;;;;;;;;;;;;;;;5112843;28;19924;-66
2021/06/16 06:45:10;;;;;;;;;;;;;;;;;;5112411;28;19930;-67
2021/06/16 06:47:37;;;;;;;;;;;;;;;;;;5112802;28;20023;-67
2021/06/16 06:50:10;;;;;;;;;;;;;;;;;;5112307;28;19935;-67
2021/06/16 06:52:37;;;;;;;;;;;;;;;;;;5112403;28;19927;-66
2021/06/16 06:55:04;;;;;;;;;;;;;;;;;;5112799;28;19924;-67
2021/06/16 06:57:31;;;;;;;;;;;;;;;;;;5112640;28;20173;-68
2021/06/16 06:59:59;;;;;;;;;;;;;;;;;;5111785;28;21326;-66
2021/06/16 07:02:26;;;;;;;;;;;;;;;;;;5112717;28;20398;-66
2021/06/16 07:04:53;;;;;;;;;;;;;;;;;;5112491;28;20284;-66
2021/06/16 07:07:20;;;;;;;;;;;;;;;;;;5112231;28;19934;-66
2021/06/16 07:09:48;;;;;;;;;;;;;;;;;;5112470;28;19927;-65
2021/06/16 07:12:15;;;;;;;;;;;;;;;;;;5112525;28;19939;-65
2021/06/16 07:14:42;;;;;;;;;;;;;;;;;;5112317;28;19970;-67
2021/06/16 07:17:09;;;;;;;;;;;;;;;;;;5112691;28;19946;-67
2021/06/16 07:19:36;;;;;;;;;;;;;;;;;;5111459;28;19924;-66
2021/06/16 07:22:03;;;;;;;;;;;;;;;;;;5112122;28;19928;-67
2021/06/16 07:24:30;;;;;;;;;;;;;;;;;;5112010;28;19927;-67
2021/06/16 07:26:57;;;;;;;;;;;;;;;;;;5112013;28;20406;-66
2021/06/16 07:29:24;;;;;;;;;;;;;;;;;;5111427;28;19923;-67
2021/06/16 07:31:51;;;;;;;;;;;;;;;;;;5112082;28;20022;-67
2021/06/16 07:34:18;;;;;;;;;;;;;;;;;;5111702;28;20302;-67
2021/06/16 07:36:45;;;;;;;;;;;;;;;;;;5112007;28;20268;-66
2021/06/16 07:39:12;;;;;;;;;;;;;;;;;;5111885;28;19924;-68
2021/06/16 07:41:39;;;;;;;;;;;;;;;;;;5111582;28;19974;-67
2021/06/16 07:44:08;;;;;;;;;;;;;;;;;;5111746;28;19923;-67
2021/06/16 07:46:35;;;;;;;;;;;;;;;;;;5111892;28;20351;-67
2021/06/16 07:49:02;;;;;;;;;;;;;;;;;;5111607;28;20022;-66
2021/06/16 07:51:29;;;;;;;;;;;;;;;;;;5115431;28;19930;-66
2021/06/16 07:53:56;;;;;;;;;;;;;;;;;;5115923;28;20363;-65
2021/06/16 07:56:23;;;;;;;;;;;;;;;;;;5115764;28;19946;-65
2021/06/16 07:58:50;;;;;;;;;;;;;;;;;;5115428;28;19967;-65
2021/06/16 08:01:17;;;;;;;;;;;;;;;;;;5115440;28;20332;-66
2021/06/16 08:03:44;;;;;;;;;;;;;;;;;;5115339;28;19935;-64
2021/06/16 08:06:11;;;;;;;;;;;;;;;;;;5115585;28;19923;-67
2021/06/16 08:08:38;;;;;;;;;;;;;;;;;;5133304;27;19930;-67
2021/06/16 08:11:05;;;;;;;;;;;;;;;;;;5135616;27;19923;-67
2021/06/16 08:13:32;;;;;;;;;;;;;;;;;;5135539;27;20391;-67
2021/06/16 08:15:59;;;;;;;;;;;;;;;;;;5135631;27;19973;-67
2021/06/16 08:18:26;;;;;;;;;;;;;;;;;;5135721;27;20307;-67
2021/06/16 08:20:53;;;;;;;;;;;;;;;;;;5135459;27;19930;-66
2021/06/16 08:23:20;;;;;;;;;;;;;;;;;;5135518;27;19949;-67
2021/06/16 08:25:47;;;;;;;;;;;;;;;;;;5118073;27;19973;-67
2021/06/16 08:28:14;;;;;;;;;;;;;;;;;;5114744;28;19927;-67
2021/06/16 08:30:41;;;;;;;;;;;;;;;;;;5114383;28;19928;-66
2021/06/16 08:33:08;;;;;;;;;;;;;;;;;;5115045;28;19924;-67
2021/06/16 08:35:35;;;;;;;;;;;;;;;;;;5114810;28;20376;-67
2021/06/16 08:38:02;;;;;;;;;;;;;;;;;;5114657;28;19949;-68
2021/06/16 08:40:29;;;;;;;;;;;;;;;;;;5114575;28;19924;-66
2021/06/16 08:42:56;;;;;;;;;;;;;;;;;;5114333;28;19924;-67
2021/06/16 08:45:23;;;;;;;;;;;;;;;;;;5114717;28;19930;-66
2021/06/16 08:47:50;;;;;;;;;;;;;;;;;;5114596;28;19927;-65
2021/06/16 08:50:17;;;;;;;;;;;;;;;;;;5114220;28;19928;-65
2021/06/16 08:52:44;;;;;;;;;;;;;;;;;;5114585;28;19946;-67
2021/06/16 08:55:11;;;;;;;;;;;;;;;;;;5114647;28;19924;-66
2021/06/16 08:57:39;;;;;;;;;;;;;;;;;;5114737;28;19930;-66
2021/06/16 09:00:06;;;;;;;;;;;;;;;;;;5114294;28;19969;-67
2021/06/16 09:02:33;;;;;;;;;;;;;;;;;;5114062;28;19924;-67
2021/06/16 09:05:00;;;;;;;;;;;;;;;;;;5114370;28;19924;-66
2021/06/16 09:07:27;;;;;;;;;;;;;;;;;;5114320;28;20431;-66
2021/06/16 09:09:54;;;;;;;;;;;;;;;;;;5113763;28;20019;-65
2021/06/16 09:12:21;;;;;;;;;;;;;;;;;;5114167;28;20347;-66
2021/06/16 09:14:48;;;;;;;;;;;;;;;;;;5114084;28;19950;-67
2021/06/16 09:17:15;;;;;;;;;;;;;;;;;;5114158;28;20307;-68
2021/06/16 09:19:42;;;;;;;;;;;;;;;;;;5100718;22;19925;-66
2021/06/16 09:22:09;;;;;;;;;;;;;;;;;;5073177;28;19929;-64
2021/06/16 09:24:36;;;;;;;;;;;;;;;;;;5066075;28;20384;-64
2021/06/16 09:27:03;;;;;;;;;;;;;;;;;;5053503;28;19948;-64
2021/06/16 09:29:30;;;;;;;;;;;;;;;;;;5053081;28;19936;-65
2021/06/16 09:31:57;;;;;;;;;;;;;;;;;;5053193;28;20326;-63
2021/06/16 09:34:24;;;;;;;;;;;;;;;;;;5053161;28;20373;-64
2021/06/16 09:36:51;;;;;;;;;;;;;;;;;;5053501;28;19946;-72
2021/06/16 09:39:18;;;;;;;;;;;;;;;;;;5052915;28;19924;-63
2021/06/16 09:41:45;;;;;;;;;;;;;;;;;;5053197;28;19925;-66
2021/06/16 09:44:12;;;;;;;;;;;;;;;;;;5052958;28;19924;-64
2021/06/16 09:46:39;;;;;;;;;;;;;;;;;;5053138;28;19929;-64
2021/06/16 09:49:06;;;;;;;;;;;;;;;;;;5052677;28;19925;-63
2021/06/16 09:51:33;;;;;;;;;;;;;;;;;;5053172;28;19925;-66
2021/06/16 09:54:01;;;;;;;;;;;;;;;;;;5052561;28;19935;-64
2021/06/16 09:56:29;;;;;;;;;;;;;;;;;;5052971;28;19979;-63
2021/06/16 09:58:56;;;;;;;;;;;;;;;;;;5052537;28;19940;-64
2021/06/16 10:01:23;;;;;;;;;;;;;;;;;;5052323;28;19931;-64
2021/06/16 10:03:50;;;;;;;;;;;;;;;;;;5052641;28;19932;-66
2021/06/16 10:06:17;;;;;;;;;;;;;;;;;;5052548;28;20402;-64
2021/06/16 10:08:44;;;;;;;;;;;;;;;;;;5052336;28;20393;-64
2021/06/16 10:11:11;;;;;;;;;;;;;;;;;;5052066;28;20311;-65
2021/06/16 10:13:38;;;;;;;;;;;;;;;;;;5051370;28;19925;-64
2021/06/16 10:16:05;;;;;;;;;;;;;;;;;;5052173;28;19932;-66
2021/06/16 10:18:34;;;;;;;;;;;;;;;;;;5051798;28;19924;-65
2021/06/16 10:21:01;;;;;;;;;;;;;;;;;;5051779;28;19939;-64
2021/06/16 10:23:27;;;;;;;;;;;;;;;;;;5052030;28;19931;-66
2021/06/16 10:25:54;;;;;;;;;;;;;;;;;;5051974;28;20380;-65
2021/06/16 10:28:21;;;;;;;;;;;;;;;;;;5051918;28;20304;-66
2021/06/16 10:30:48;;;;;;;;;;;;;;;;;;5051969;28;19924;-64
2021/06/16 10:33:15;;;;;;;;;;;;;;;;;;5051747;28;19929;-66
2021/06/16 10:35:42;;;;;;;;;;;;;;;;;;5051900;28;19971;-64
2021/06/16 10:38:09;;;;;;;;;;;;;;;;;;5051914;28;20404;-64
2021/06/16 10:40:39;;;;;;;;;;;;;;;;;;5051743;28;19931;-65
2021/06/16 10:43:06;;;;;;;;;;;;;;;;;;5051969;28;19978;-65
2021/06/16 10:45:33;;;;;;;;;;;;;;;;;;5051889;28;19925;-65
2021/06/16 10:48:00;;;;;;;;;;;;;;;;;;5052082;28;19935;-63
2021/06/16 10:50:27;;;;;;;;;;;;;;;;;;5051625;28;20035;-64
2021/06/16 10:52:54;;;;;;;;;;;;;;;;;;5052211;28;19931;-65
2021/06/16 10:55:24;;;;;;;;;;;;;;;;;;5051943;28;19925;-66
2021/06/16 10:57:51;;;;;;;;;;;;;;;;;;5052241;28;19924;-64
2021/06/16 11:00:18;;;;;;;;;;;;;;;;;;5051010;28;19924;-65
2021/06/16 11:02:44;;;;;;;;;;;;;;;;;;5051413;28;19928;-64
2021/06/16 11:05:11;;;;;;;;;;;;;;;;;;5051874;28;19990;-64
2021/06/16 11:07:38;;;;;;;;;;;;;;;;;;5051667;28;19931;-64
2021/06/16 11:10:05;;;;;;;;;;;;;;;;;;5051283;28;19924;-65
2021/06/16 11:12:32;;;;;;;;;;;;;;;;;;5051297;28;19978;-64
2021/06/16 11:14:59;;;;;;;;;;;;;;;;;;5051640;28;19925;-65
2021/06/16 11:17:27;;;;;;;;;;;;;;;;;;5051508;28;19929;-65
2021/06/16 11:19:53;;;;;;;;;;;;;;;;;;5051254;28;19925;-65
2021/06/16 11:22:20;;;;;;;;;;;;;;;;;;5051832;28;20304;-65
2021/06/16 11:24:47;;;;;;;;;;;;;;;;;;5052415;28;19931;-65
2021/06/16 11:27:14;;;;;;;;;;;;;;;;;;5055904;28;19925;-64
2021/06/16 11:29:41;;;;;;;;;;;;;;;;;;5054798;28;19925;-64
2021/06/16 11:32:08;;;;;;;;;;;;;;;;;;5055904;28;19924;-64
2021/06/16 11:34:35;;;;;;;;;;;;;;;;;;5055640;28;19924;-64
2021/06/16 11:37:02;;;;;;;;;;;;;;;;;;5055836;28;19946;-64
2021/06/16 11:39:29;;;;;;;;;;;;;;;;;;5055390;28;19928;-64
2021/06/16 11:41:56;;;;;;;;;;;;;;;;;;5055562;28;20452;-64
2021/06/16 11:44:23;;;;;;;;;;;;;;;;;;5055315;28;20197;-65
2021/06/16 11:46:50;;;;;;;;;;;;;;;;;;5055584;28;19929;-65
2021/06/16 11:49:20;;;;;;;;;;;;;;;;;;5054980;28;19925;-65
2021/06/16 11:51:47;;;;;;;;;;;;;;;;;;5055329;28;19924;-65
2021/06/16 11:54:23;;;;;;;;;;;;;;;;;;5055309;28;19994;-65
2021/06/16 11:56:50;;;;;;;;;;;;;;;;;;5055520;28;19935;-65
2021/06/16 11:59:17;;;;;;;;;;;;;;;;;;5054963;28;19931;-65
2021/06/16 12:01:45;;;;;;;;;;;;;;;;;;5055443;28;19924;-64
2021/06/16 12:04:15;;;;;;;;;;;;;;;;;;5055260;28;19931;-63
2021/06/16 12:06:42;;;;;;;;;;;;;;;;;;5054940;28;19925;-65
2021/06/16 12:09:09;;;;;;;;;;;;;;;;;;5054029;28;19968;-65
2021/06/16 12:11:37;;;;;;;;;;;;;;;;;;5054808;28;20158;-65
2021/06/16 12:14:04;;;;;;;;;;;;;;;;;;5054653;28;19976;-64
2021/06/16 12:16:31;;;;;;;;;;;;;;;;;;5054815;28;19928;-64
2021/06/16 12:18:58;;;;;;;;;;;;;;;;;;5054476;28;20385;-64
2021/06/16 12:21:24;;;;;;;;;;;;;;;;;;5054124;28;19928;-65
2021/06/16 12:23:51;;;;;;;;;;;;;;;;;;5054154;28;19983;-63
2021/06/16 12:26:21;;;;;;;;;;;;;;;;;;5054455;28;20023;-64
2021/06/16 12:28:48;;;;;;;;;;;;;;;;;;5054611;28;19925;-64
2021/06/16 12:31:19;;;;;;;;;;;;;;;;;;5054266;28;20284;-64
2021/06/16 12:33:49;;;;;;;;;;;;;;;;;;5054286;28;19925;-64
2021/06/16 12:36:16;;;;;;;;;;;;;;;;;;5052957;28;19980;-64
2021/06/16 12:38:43;;;;;;;;;;;;;;;;;;5054377;28;19928;-64
2021/06/16 12:41:10;;;;;;;;;;;;;;;;;;5054316;28;20332;-64
2021/06/16 12:43:37;;;;;;;;;;;;;;;;;;5054011;28;19932;-64
2021/06/16 12:46:04;;;;;;;;;;;;;;;;;;5054260;28;20363;-65
2021/06/16 12:48:31;;;;;;;;;;;;;;;;;;5053948;28;19935;-64
2021/06/16 12:50:58;;;;;;;;;;;;;;;;;;5053509;28;20452;-64
2021/06/16 12:53:25;;;;;;;;;;;;;;;;;;5053797;28;19931;-64
2021/06/16 12:55:52;;;;;;;;;;;;;;;;;;5053928;28;20300;-64
2021/06/16 12:58:21;;;;;;;;;;;;;;;;;;5053770;28;19925;-66
2021/06/16 13:00:48;;;;;;;;;;;;;;;;;;5054036;28;19931;-64
2021/06/16 13:03:15;;;;;;;;;;;;;;;;;;5053672;28;19925;-65
2021/06/16 13:05:42;;;;;;;;;;;;;;;;;;5054316;28;19924;-66
2021/06/16 13:08:09;;;;;;;;;;;;;;;;;;5054081;28;20011;-64
2021/06/16 13:10:37;;;;;;;;;;;;;;;;;;5053670;28;19925;-64
2021/06/16 13:13:04;;;;;;;;;;;;;;;;;;5053939;28;20392;-63
2021/06/16 13:15:31;;;;;;;;;;;;;;;;;;5053625;28;20371;-63
2021/06/16 13:17:58;;;;;;;;;;;;;;;;;;5053718;28;19931;-63
2021/06/16 13:20:25;;;;;;;;;;;;;;;;;;5053682;28;20396;-66
2021/06/16 13:22:52;;;;;;;;;;;;;;;;;;5053710;28;19968;-66
2021/06/16 13:25:19;;;;;;;;;;;;;;;;;;5053944;28;20000;-65
2021/06/16 13:27:46;;;;;;;;;;;;;;;;;;5053341;28;19925;-64
2021/06/16 13:30:13;;;;;;;;;;;;;;;;;;5052886;28;19932;-63
2021/06/16 13:32:40;;;;;;;;;;;;;;;;;;5053008;28;19925;-64
2021/06/16 13:35:07;;;;;;;;;;;;;;;;;;5053403;28;19925;-64
2021/06/16 13:37:34;;;;;;;;;;;;;;;;;;5053084;28;19970;-64
2021/06/16 13:40:01;;;;;;;;;;;;;;;;;;5056413;28;19928;-64
2021/06/16 13:42:28;;;;;;;;;;;;;;;;;;5059833;28;19960;-64
2021/06/16 13:44:55;;;;;;;;;;;;;;;;;;5059667;28;19931;-63
2021/06/16 13:47:22;;;;;;;;;;;;;;;;;;5054605;28;19964;-65
2021/06/16 13:49:49;;;;;;;;;;;;;;;;;;5052336;28;19925;-63
2021/06/16 13:52:20;;;;;;;;;;;;;;;;;;5053412;28;20311;-64
2021/06/16 13:54:47;;;;;;;;;;;;;;;;;;5053500;28;19970;-65
2021/06/16 13:57:14;;;;;;;;;;;;;;;;;;5053489;28;19925;-65
2021/06/16 13:59:41;;;;;;;;;;;;;;;;;;5052163;28;20285;-65
2021/06/16 14:02:08;;;;;;;;;;;;;;;;;;5053297;28;19947;-64
2021/06/16 14:04:35;;;;;;;;;;;;;;;;;;5052756;28;19924;-64
2021/06/16 14:07:02;;;;;;;;;;;;;;;;;;5052382;28;20014;-64
2021/06/16 14:09:29;;;;;;;;;;;;;;;;;;5052344;28;20043;-64
2021/06/16 14:11:56;;;;;;;;;;;;;;;;;;5052250;28;19925;-64
2021/06/16 14:14:23;;;;;;;;;;;;;;;;;;5052336;28;20389;-64
2021/06/16 14:16:51;;;;;;;;;;;;;;;;;;5052455;28;19959;-65
2021/06/16 14:19:18;;;;;;;;;;;;;;;;;;5052302;28;20152;-64
2021/06/16 14:21:45;;;;;;;;;;;;;;;;;;5052469;28;19968;-64
2021/06/16 14:24:12;;;;;;;;;;;;;;;;;;5052321;28;19935;-66
2021/06/16 14:26:39;;;;;;;;;;;;;;;;;;5052431;28;19925;-64
2021/06/16 14:29:06;;;;;;;;;;;;;;;;;;5051930;28;20391;-63
2021/06/16 14:31:33;;;;;;;;;;;;;;;;;;5052149;28;19929;-66
2021/06/16 14:34:00;;;;;;;;;;;;;;;;;;5051916;28;20000;-64
2021/06/16 14:36:27;;;;;;;;;;;;;;;;;;5052284;28;19972;-63
2021/06/16 14:38:54;;;;;;;;;;;;;;;;;;5051992;28;19937;-63
2021/06/16 14:41:21;;;;;;;;;;;;;;;;;;5052125;28;20067;-64
2021/06/16 14:43:48;;;;;;;;;;;;;;;;;;5052383;28;20203;-63
2021/06/16 14:46:15;;;;;;;;;;;;;;;;;;5052328;28;19931;-64
2021/06/16 14:48:42;;;;;;;;;;;;;;;;;;5051995;28;19931;-64
2021/06/16 14:51:09;;;;;;;;;;;;;;;;;;5051757;28;19925;-64
2021/06/16 14:53:36;;;;;;;;;;;;;;;;;;5051954;28;19925;-64
2021/06/16 14:56:03;;;;;;;;;;;;;;;;;;5051891;28;19967;-64
2021/06/16 14:58:30;;;;;;;;;;;;;;;;;;5051678;28;20393;-65
2021/06/16 15:00:57;;;;;;;;;;;;;;;;;;5051079;28;20027;-65
2021/06/16 15:03:24;;;;;;;;;;;;;;;;;;5051814;28;20406;-64
2021/06/16 15:05:51;;;;;;;;;;;;;;;;;;5052218;28;19929;-64
2021/06/16 15:08:18;;;;;;;;;;;;;;;;;;5051742;28;19925;-64
2021/06/16 15:10:45;;;;;;;;;;;;;;;;;;5051392;28;19978;-63
2021/06/16 15:13:13;;;;;;;;;;;;;;;;;;5051975;28;19936;-64
2021/06/16 15:15:40;;;;;;;;;;;;;;;;;;5051587;28;20347;-65
2021/06/16 15:18:07;;;;;;;;;;;;;;;;;;5051690;28;20308;-65
2021/06/16 15:20:34;;;;;;;;;;;;;;;;;;5052016;28;19932;-63
2021/06/16 15:23:01;;;;;;;;;;;;;;;;;;5051363;28;19925;-63
2021/06/16 15:25:31;;;;;;;;;;;;;;;;;;5051626;28;19970;-64
2021/06/16 15:28:00;;;;;;;;;;;;;;;;;;5051580;28;19925;-64
2021/06/16 15:30:27;;;;;;;;;;;;;;;;;;5050922;28;20027;-64
2021/06/16 15:32:54;;;;;;;;;;;;;;;;;;5051539;28;20360;-64
2021/06/16 15:35:23;;;;;;;;;;;;;;;;;;5051653;28;20293;-64
2021/06/16 15:37:50;;;;;;;;;;;;;;;;;;5051689;28;20115;-64
2021/06/16 15:40:17;;;;;;;;;;;;;;;;;;5051030;28;19925;-64
2021/06/16 15:42:44;;;;;;;;;;;;;;;;;;5051653;28;20307;-64
2021/06/16 15:45:11;;;;;;;;;;;;;;;;;;5051441;28;20265;-64
2021/06/16 15:47:38;;;;;;;;;;;;;;;;;;5051406;28;20389;-65
2021/06/16 15:50:05;;;;;;;;;;;;;;;;;;5050880;28;19931;-65
2021/06/16 15:52:32;;;;;;;;;;;;;;;;;;5051191;28;19928;-64
2021/06/16 15:55:00;;;;;;;;;;;;;;;;;;5051560;28;19947;-64
2021/06/16 15:57:27;;;;;;;;;;;;;;;;;;5051290;28;20316;-64
2021/06/16 15:59:54;;;;;;;;;;;;;;;;;;5050808;28;19925;-64
2021/06/16 16:02:21;;;;;;;;;;;;;;;;;;5051170;28;19928;-64
2021/06/16 16:04:48;;;;;;;;;;;;;;;;;;5050983;28;19967;-64
2021/06/16 16:07:15;;;;;;;;;;;;;;;;;;5050844;28;19940;-64
2021/06/16 16:09:42;;;;;;;;;;;;;;;;;;5050620;28;20023;-64
2021/06/16 16:12:12;;;;;;;;;;;;;;;;;;5054333;28;19931;-65
2021/06/16 16:14:39;;;;;;;;;;;;;;;;;;5054668;28;20200;-65
2021/06/16 16:17:06;;;;;;;;;;;;;;;;;;5055694;28;19971;-65
2021/06/16 16:19:33;;;;;;;;;;;;;;;;;;5054342;28;20383;-65
2021/06/16 16:22:00;;;;;;;;;;;;;;;;;;5054756;28;20003;-64
2021/06/16 16:24:27;;;;;;;;;;;;;;;;;;5054661;28;20032;-65
2021/06/16 16:26:54;;;;;;;;;;;;;;;;;;5054989;28;19984;-65
2021/06/16 16:29:22;;;;;;;;;;;;;;;;;;5054498;28;19982;-65
2021/06/16 16:31:49;;;;;;;;;;;;;;;;;;5054486;28;19938;-65
2021/06/16 16:34:16;;;;;;;;;;;;;;;;;;5055428;28;19960;-65
2021/06/16 16:36:43;;;;;;;;;;;;;;;;;;5055034;28;19971;-65
2021/06/16 16:39:10;;;;;;;;;;;;;;;;;;5054881;28;20309;-64
2021/06/16 16:41:37;;;;;;;;;;;;;;;;;;5054505;28;19925;-65
2021/06/16 16:44:04;;;;;;;;;;;;;;;;;;5054564;28;20381;-65